KMPV/MPV METAR and TAF weather

Enter ICAO airport designator
Station Type Date Time Source
KMPV METAR 2020/01/29 02:51 UTC NOAA

KMPV 290251Z AUTO 30007KT 10SM BKN024 OVC029 M05/M07 A2991 RMK AO2 SNB09E13B29E35 SLP145 P0000 60000 T10501072 51013


Station Type Date Time Source
KMPV Decoded METAR 2020/01/29 02:51 UTC NOAA

KNAPP STATE AIRPORT, VT, United States (KMPV) 44-12N 072-34W 343M
Jan 28, 2020 - 09:51 PM EST / 2020.01.29 0251 UTC
Wind: from the WNW (300 degrees) at 8 MPH (7 KT):0
Visibility: 10 mile(s):0
Sky conditions: overcast
Precipitation last hour: A trace
Temperature: 23.0 F (-5.0 C)
Windchill: 14 F (-10 C):1
Dew Point: 19.0 F (-7.2 C)
Relative Humidity: 84%
Pressure (altimeter): 29.91 in. Hg (1012 hPa)
Pressure tendency: 0.04 inches (1.3 hPa) higher than three hours ago
ob: KMPV 290251Z AUTO 30007KT 10SM BKN024 OVC029 M05/M07 A2991 RMK AO2 SNB09E13B29E35 SLP145 P0000 60000 T10501072 51013
cycle: 3

Station Type Date Time Source
KMPV TAF 2020/01/29 03:33 UTC NOAA

TAF
AMD KMPV 290231Z 2903/2924 33006KT P6SM -SHSN OVC025
FM290500 32005KT P6SM OVC035
FM291200 33005KT P6SM BKN180
FM291700 32009KT P6SM FEW200

Example: see airport list